sensor_id;sensor_type;location;lat;lon;timestamp;pressure;altitude;pressure_sealevel;temperature;humidity
15229;BME280;7717;47.792;12.076;2023-03-26T00:00:41;95779.00;;;7.15;89.69
15229;BME280;7717;47.792;12.076;2023-03-26T00:03:11;95749.22;;;8.29;85.88
15229;BME280;7717;47.792;12.076;2023-03-26T00:05:38;95722.47;;;9.23;82.78
15229;BME280;7717;47.792;12.076;2023-03-26T00:08:04;95719.81;;;9.35;82.67
15229;BME280;7717;47.792;12.076;2023-03-26T00:10:29;95714.38;;;9.76;82.64
15229;BME280;7717;47.792;12.076;2023-03-26T00:12:54;95700.59;;;9.92;80.95
15229;BME280;7717;47.792;12.076;2023-03-26T00:15:20;95702.25;;;9.98;80.42
15229;BME280;7717;47.792;12.076;2023-03-26T00:17:45;95698.78;;;10.03;80.55
15229;BME280;7717;47.792;12.076;2023-03-26T00:20:12;95747.31;;;10.09;83.46
15229;BME280;7717;47.792;12.076;2023-03-26T00:22:39;95751.75;;;9.89;83.27
15229;BME280;7717;47.792;12.076;2023-03-26T00:25:06;95756.94;;;9.80;85.12
15229;BME280;7717;47.792;12.076;2023-03-26T00:27:32;95739.22;;;9.60;85.33
15229;BME280;7717;47.792;12.076;2023-03-26T00:29:58;95710.03;;;9.85;81.72
15229;BME280;7717;47.792;12.076;2023-03-26T00:32:26;95677.41;;;10.09;79.91
15229;BME280;7717;47.792;12.076;2023-03-26T00:34:53;95670.09;;;10.54;78.52
15229;BME280;7717;47.792;12.076;2023-03-26T00:37:20;95684.53;;;10.58;79.44
15229;BME280;7717;47.792;12.076;2023-03-26T00:39:54;95720.44;;;10.54;80.82
15229;BME280;7717;47.792;12.076;2023-03-26T00:42:24;95698.31;;;10.47;79.67
15229;BME280;7717;47.792;12.076;2023-03-26T00:44:50;95734.69;;;9.94;82.21
15229;BME280;7717;47.792;12.076;2023-03-26T00:47:19;95751.63;;;8.82;84.38
15229;BME280;7717;47.792;12.076;2023-03-26T00:49:46;95767.06;;;8.53;88.71
15229;BME280;7717;47.792;12.076;2023-03-26T00:52:13;95754.34;;;8.29;88.06
15229;BME280;7717;47.792;12.076;2023-03-26T00:54:39;95756.06;;;8.24;89.83
15229;BME280;7717;47.792;12.076;2023-03-26T00:57:05;95767.09;;;8.28;90.58
15229;BME280;7717;47.792;12.076;2023-03-26T00:59:31;95748.38;;;8.34;91.22
15229;BME280;7717;47.792;12.076;2023-03-26T01:02:00;95745.91;;;8.04;91.48
15229;BME280;7717;47.792;12.076;2023-03-26T01:04:31;95762.06;;;7.96;91.34
15229;BME280;7717;47.792;12.076;2023-03-26T01:07:09;95746.78;;;7.89;91.21
15229;BME280;7717;47.792;12.076;2023-03-26T01:09:39;95756.97;;;7.86;91.69
15229;BME280;7717;47.792;12.076;2023-03-26T01:12:10;95750.19;;;7.73;93.36
15229;BME280;7717;47.792;12.076;2023-03-26T01:14:37;95714.31;;;8.56;88.79
15229;BME280;7717;47.792;12.076;2023-03-26T01:17:05;95721.53;;;9.33;87.45
15229;BME280;7717;47.792;12.076;2023-03-26T01:22:37;95701.88;;;9.43;88.24
15229;BME280;7717;47.792;12.076;2023-03-26T01:25:05;95734.94;;;9.62;89.62
15229;BME280;7717;47.792;12.076;2023-03-26T01:27:46;95733.34;;;9.48;89.11
15229;BME280;7717;47.792;12.076;2023-03-26T01:30:39;95728.22;;;9.48;90.97
15229;BME280;7717;47.792;12.076;2023-03-26T01:33:32;95719.69;;;9.51;88.18
15229;BME280;7717;47.792;12.076;2023-03-26T01:36:36;95717.69;;;9.85;87.78
15229;BME280;7717;47.792;12.076;2023-03-26T01:39:18;95720.22;;;9.88;87.49
15229;BME280;7717;47.792;12.076;2023-03-26T01:41:48;95717.78;;;9.78;89.45
15229;BME280;7717;47.792;12.076;2023-03-26T01:44:34;95698.16;;;9.78;86.40
15229;BME280;7717;47.792;12.076;2023-03-26T01:47:02;95702.25;;;9.96;86.35
15229;BME280;7717;47.792;12.076;2023-03-26T01:49:28;95701.44;;;9.96;86.30
15229;BME280;7717;47.792;12.076;2023-03-26T01:51:55;95715.03;;;9.98;86.67
15229;BME280;7717;47.792;12.076;2023-03-26T01:54:24;95709.09;;;9.96;86.54
15229;BME280;7717;47.792;12.076;2023-03-26T01:56:57;95714.31;;;9.85;87.13
15229;BME280;7717;47.792;12.076;2023-03-26T01:59:41;95710.78;;;9.95;87.70
15229;BME280;7717;47.792;12.076;2023-03-26T02:10:26;95697.25;;;9.84;88.33
15229;BME280;7717;47.792;12.076;2023-03-26T02:12:52;95699.84;;;9.81;89.64
15229;BME280;7717;47.792;12.076;2023-03-26T02:15:19;95722.91;;;9.76;91.55
15229;BME280;7717;47.792;12.076;2023-03-26T02:17:44;95685.34;;;9.83;88.23
15229;BME280;7717;47.792;12.076;2023-03-26T02:20:13;95713.41;;;9.89;88.56
15229;BME280;7717;47.792;12.076;2023-03-26T02:22:40;95709.09;;;9.97;88.56
15229;BME280;7717;47.792;12.076;2023-03-26T02:25:12;95710.84;;;9.89;89.37
15229;BME280;7717;47.792;12.076;2023-03-26T02:27:38;95701.53;;;9.85;87.52
15229;BME280;7717;47.792;12.076;2023-03-26T02:30:06;95687.84;;;9.89;87.08
15229;BME280;7717;47.792;12.076;2023-03-26T02:32:32;95692.09;;;9.88;87.76
15229;BME280;7717;47.792;12.076;2023-03-26T02:34:57;95688.78;;;9.82;87.86
15229;BME280;7717;47.792;12.076;2023-03-26T02:37:24;95695.66;;;9.73;89.65
15229;BME280;7717;47.792;12.076;2023-03-26T02:39:49;95702.56;;;9.62;90.10
15229;BME280;7717;47.792;12.076;2023-03-26T02:42:14;95685.66;;;9.50;89.61
15229;BME280;7717;47.792;12.076;2023-03-26T02:44:40;95689.88;;;9.51;89.69
15229;BME280;7717;47.792;12.076;2023-03-26T02:47:06;95686.44;;;9.59;89.25
15229;BME280;7717;47.792;12.076;2023-03-26T02:49:31;95695.69;;;9.72;90.68
15229;BME280;7717;47.792;12.076;2023-03-26T02:51:58;95671.16;;;9.51;89.60
15229;BME280;7717;47.792;12.076;2023-03-26T02:54:23;95681.34;;;9.57;90.46
15229;BME280;7717;47.792;12.076;2023-03-26T02:56:49;95679.50;;;9.71;89.57
15229;BME280;7717;47.792;12.076;2023-03-26T02:59:14;95681.22;;;9.71;90.07
15229;BME280;7717;47.792;12.076;2023-03-26T03:01:40;95682.03;;;9.75;89.44
15229;BME280;7717;47.792;12.076;2023-03-26T03:04:09;95670.19;;;9.67;89.26
15229;BME280;7717;47.792;12.076;2023-03-26T03:06:35;95675.19;;;9.73;89.23
15229;BME280;7717;47.792;12.076;2023-03-26T03:09:06;95664.16;;;9.73;89.81
15229;BME280;7717;47.792;12.076;2023-03-26T03:11:32;95678.56;;;9.80;91.50
15229;BME280;7717;47.792;12.076;2023-03-26T03:13:58;95676.88;;;9.76;91.99
15229;BME280;7717;47.792;12.076;2023-03-26T03:16:23;95676.13;;;9.68;92.05
15229;BME280;7717;47.792;12.076;2023-03-26T03:18:48;95673.66;;;9.57;93.02
15229;BME280;7717;47.792;12.076;2023-03-26T03:21:22;95642.47;;;9.21;92.97
15229;BME280;7717;47.792;12.076;2023-03-26T03:23:47;95664.59;;;9.24;94.30
15229;BME280;7717;47.792;12.076;2023-03-26T03:26:15;95664.63;;;9.19;93.95
15229;BME280;7717;47.792;12.076;2023-03-26T03:28:41;95657.84;;;9.12;95.08
15229;BME280;7717;47.792;12.076;2023-03-26T03:31:06;95644.31;;;9.05;95.73
15229;BME280;7717;47.792;12.076;2023-03-26T03:33:33;95653.59;;;9.11;95.41
15229;BME280;7717;47.792;12.076;2023-03-26T03:35:59;95650.25;;;9.03;96.33
15229;BME280;7717;47.792;12.076;2023-03-26T03:38:24;95641.84;;;8.91;97.38
15229;BME280;7717;47.792;12.076;2023-03-26T03:40:50;95643.53;;;8.92;97.58
15229;BME280;7717;47.792;12.076;2023-03-26T03:43:15;95642.69;;;8.92;97.73
15229;BME280;7717;47.792;12.076;2023-03-26T03:45:41;95642.66;;;8.93;98.29
15229;BME280;7717;47.792;12.076;2023-03-26T03:48:06;95642.78;;;8.78;99.21
15229;BME280;7717;47.792;12.076;2023-03-26T03:50:32;95611.31;;;8.76;99.55
15229;BME280;7717;47.792;12.076;2023-03-26T03:52:57;95641.91;;;8.82;100.00
15229;BME280;7717;47.792;12.076;2023-03-26T03:55:24;95624.16;;;8.63;100.00
15229;BME280;7717;47.792;12.076;2023-03-26T03:57:52;95625.94;;;8.41;100.00
15229;BME280;7717;47.792;12.076;2023-03-26T04:00:17;95636.16;;;8.38;100.00
15229;BME280;7717;47.792;12.076;2023-03-26T04:02:43;95638.66;;;8.58;100.00
15229;BME280;7717;47.792;12.076;2023-03-26T04:05:10;95629.19;;;8.74;100.00
15229;BME280;7717;47.792;12.076;2023-03-26T04:07:37;95633.44;;;8.77;100.00
15229;BME280;7717;47.792;12.076;2023-03-26T04:10:04;95635.03;;;8.92;100.00
15229;BME280;7717;47.792;12.076;2023-03-26T04:12:30;95640.09;;;8.95;99.83
15229;BME280;7717;47.792;12.076;2023-03-26T04:14:56;95639.44;;;8.65;100.00
15229;BME280;7717;47.792;12.076;2023-03-26T04:17:22;95627.75;;;8.19;100.00
15229;BME280;7717;47.792;12.076;2023-03-26T04:19:51;95647.41;;;7.88;100.00
15229;BME280;7717;47.792;12.076;2023-03-26T04:22:17;95652.56;;;7.69;100.00
15229;BME280;7717;47.792;12.076;2023-03-26T04:24:44;95641.56;;;7.53;100.00
15229;BME280;7717;47.792;12.076;2023-03-26T04:27:15;95637.28;;;7.55;100.00
15229;BME280;7717;47.792;12.076;2023-03-26T04:29:44;95636.47;;;7.50;100.00
15229;BME280;7717;47.792;12.076;2023-03-26T04:32:17;95624.56;;;7.59;100.00
15229;BME280;7717;47.792;12.076;2023-03-26T04:34:46;95614.38;;;7.54;100.00
15229;BME280;7717;47.792;12.076;2023-03-26T04:37:18;95616.91;;;7.55;100.00
15229;BME280;7717;47.792;12.076;2023-03-26T04:39:46;95609.28;;;7.62;100.00
15229;BME280;7717;47.792;12.076;2023-03-26T04:42:11;95588.03;;;7.66;100.00
15229;BME280;7717;47.792;12.076;2023-03-26T04:44:38;95592.25;;;7.68;100.00
15229;BME280;7717;47.792;12.076;2023-03-26T04:47:06;95592.25;;;7.70;100.00
15229;BME280;7717;47.792;12.076;2023-03-26T04:49:32;95590.53;;;7.80;100.00
15229;BME280;7717;47.792;12.076;2023-03-26T04:51:57;95581.25;;;7.60;100.00
15229;BME280;7717;47.792;12.076;2023-03-26T04:54:23;95582.94;;;7.66;100.00
15229;BME280;7717;47.792;12.076;2023-03-26T05:01:53;95575.22;;;7.86;100.00
15229;BME280;7717;47.792;12.076;2023-03-26T05:04:18;95562.50;;;7.81;100.00
15229;BME280;7717;47.792;12.076;2023-03-26T05:06:43;95567.56;;;7.86;100.00
15229;BME280;7717;47.792;12.076;2023-03-26T05:09:09;95555.72;;;7.83;100.00
15229;BME280;7717;47.792;12.076;2023-03-26T05:11:35;95558.28;;;7.80;100.00
15229;BME280;7717;47.792;12.076;2023-03-26T05:14:00;95561.66;;;7.76;100.00
15229;BME280;7717;47.792;12.076;2023-03-26T05:16:26;95562.59;;;7.56;100.00
15229;BME280;7717;47.792;12.076;2023-03-26T05:18:52;95563.47;;;7.46;100.00
15229;BME280;7717;47.792;12.076;2023-03-26T05:21:18;95543.94;;;7.45;100.00
15229;BME280;7717;47.792;12.076;2023-03-26T05:23:43;95539.66;;;7.61;100.00
15229;BME280;7717;47.792;12.076;2023-03-26T05:26:09;95543.91;;;7.59;100.00
15229;BME280;7717;47.792;12.076;2023-03-26T05:28:34;95535.34;;;7.77;100.00
15229;BME280;7717;47.792;12.076;2023-03-26T05:31:00;95524.25;;;7.84;100.00
15229;BME280;7717;47.792;12.076;2023-03-26T05:33:25;95529.38;;;7.83;100.00
15229;BME280;7717;47.792;12.076;2023-03-26T05:36:04;95521.72;;;7.83;100.00
15229;BME280;7717;47.792;12.076;2023-03-26T05:38:31;95512.44;;;7.72;100.00
15229;BME280;7717;47.792;12.076;2023-03-26T05:41:04;95509.84;;;7.85;100.00
15229;BME280;7717;47.792;12.076;2023-03-26T05:43:31;95508.09;;;7.93;100.00
15229;BME280;7717;47.792;12.076;2023-03-26T05:45:56;95491.16;;;7.84;100.00
15229;BME280;7717;47.792;12.076;2023-03-26T05:48:22;95491.97;;;7.92;100.00
15229;BME280;7717;47.792;12.076;2023-03-26T05:50:49;95492.81;;;7.91;100.00
15229;BME280;7717;47.792;12.076;2023-03-26T05:53:15;95498.78;;;7.87;100.00
15229;BME280;7717;47.792;12.076;2023-03-26T05:55:43;95492.81;;;7.91;100.00
15229;BME280;7717;47.792;12.076;2023-03-26T05:58:11;95485.28;;;7.65;100.00
15229;BME280;7717;47.792;12.076;2023-03-26T06:00:36;95497.19;;;7.68;100.00
15229;BME280;7717;47.792;12.076;2023-03-26T06:03:03;95490.38;;;7.70;100.00
15229;BME280;7717;47.792;12.076;2023-03-26T06:05:31;95478.44;;;7.80;100.00
15229;BME280;7717;47.792;12.076;2023-03-26T06:07:57;95480.19;;;7.68;100.00
15229;BME280;7717;47.792;12.076;2023-03-26T06:10:22;95480.13;;;7.81;100.00
15229;BME280;7717;47.792;12.076;2023-03-26T06:12:48;95474.13;;;7.92;100.00
15229;BME280;7717;47.792;12.076;2023-03-26T06:15:14;95484.25;;;8.05;100.00
15229;BME280;7717;47.792;12.076;2023-03-26T06:17:39;95482.69;;;7.79;100.00
15229;BME280;7717;47.792;12.076;2023-03-26T06:20:05;95458.75;;;8.06;100.00
15229;BME280;7717;47.792;12.076;2023-03-26T06:22:31;95460.47;;;8.00;100.00
15229;BME280;7717;47.792;12.076;2023-03-26T06:24:57;95467.25;;;8.04;100.00
15229;BME280;7717;47.792;12.076;2023-03-26T06:27:22;95459.56;;;8.10;100.00
15229;BME280;7717;47.792;12.076;2023-03-26T06:29:47;95469.66;;;8.28;100.00
15229;BME280;7717;47.792;12.076;2023-03-26T06:32:13;95466.28;;;8.22;100.00
15229;BME280;7717;47.792;12.076;2023-03-26T06:34:39;95472.13;;;8.44;100.00
15229;BME280;7717;47.792;12.076;2023-03-26T06:37:10;95456.91;;;8.30;100.00
15229;BME280;7717;47.792;12.076;2023-03-26T06:39:35;95463.41;;;8.67;100.00
15229;BME280;7717;47.792;12.076;2023-03-26T06:42:04;95454.03;;;8.69;100.00
15229;BME280;7717;47.792;12.076;2023-03-26T06:44:29;95454.84;;;8.77;100.00
15229;BME280;7717;47.792;12.076;2023-03-26T06:46:58;95442.03;;;8.81;100.00
15229;BME280;7717;47.792;12.076;2023-03-26T06:49:24;95451.38;;;8.81;100.00
15229;BME280;7717;47.792;12.076;2023-03-26T06:51:49;95450.56;;;8.79;100.00
15229;BME280;7717;47.792;12.076;2023-03-26T06:54:15;95445.28;;;8.97;100.00
15229;BME280;7717;47.792;12.076;2023-03-26T06:56:40;95440.94;;;9.04;100.00
15229;BME280;7717;47.792;12.076;2023-03-26T06:59:06;95416.19;;;9.09;100.00
15229;BME280;7717;47.792;12.076;2023-03-26T07:01:31;95406.16;;;9.64;100.00
15229;BME280;7717;47.792;12.076;2023-03-26T07:03:57;95399.94;;;9.83;100.00
15229;BME280;7717;47.792;12.076;2023-03-26T07:06:22;95388.69;;;9.95;100.00
15229;BME280;7717;47.792;12.076;2023-03-26T07:08:48;95399.19;;;10.33;100.00
15229;BME280;7717;47.792;12.076;2023-03-26T07:11:17;95402.03;;;10.14;100.00
15229;BME280;7717;47.792;12.076;2023-03-26T07:13:44;95399.19;;;10.31;100.00
15229;BME280;7717;47.792;12.076;2023-03-26T07:16:11;95375.50;;;10.21;100.00
15229;BME280;7717;47.792;12.076;2023-03-26T07:18:38;95363.16;;;10.47;100.00
15229;BME280;7717;47.792;12.076;2023-03-26T07:21:04;95350.31;;;10.50;100.00
15229;BME280;7717;47.792;12.076;2023-03-26T07:23:39;95342.94;;;10.33;100.00
15229;BME280;7717;47.792;12.076;2023-03-26T07:29:26;95341.25;;;10.33;100.00
15229;BME280;7717;47.792;12.076;2023-03-26T07:40:36;95307.75;;;9.96;100.00
15229;BME280;7717;47.792;12.076;2023-03-26T07:43:08;95269.13;;;10.11;100.00
15229;BME280;7717;47.792;12.076;2023-03-26T07:45:42;95290.03;;;9.85;100.00
15229;BME280;7717;47.792;12.076;2023-03-26T07:50:38;95266.63;;;10.55;100.00
15229;BME280;7717;47.792;12.076;2023-03-26T07:53:03;95257.25;;;10.08;100.00
15229;BME280;7717;47.792;12.076;2023-03-26T07:55:29;95254.66;;;10.10;100.00
15229;BME280;7717;47.792;12.076;2023-03-26T08:00:39;95260.97;;;10.83;100.00
15229;BME280;7717;47.792;12.076;2023-03-26T08:03:20;95242.38;;;10.74;100.00
15229;BME280;7717;47.792;12.076;2023-03-26T08:11:22;95232.75;;;10.43;100.00
15229;BME280;7717;47.792;12.076;2023-03-26T08:14:07;95231.88;;;10.87;100.00
15229;BME280;7717;47.792;12.076;2023-03-26T08:19:30;95240.75;;;11.11;100.00
15229;BME280;7717;47.792;12.076;2023-03-26T08:22:10;95222.44;;;11.28;100.00
15229;BME280;7717;47.792;12.076;2023-03-26T08:30:24;95210.03;;;12.49;100.00
15229;BME280;7717;47.792;12.076;2023-03-26T08:32:58;95174.84;;;12.52;100.00
15229;BME280;7717;47.792;12.076;2023-03-26T08:35:26;95175.06;;;13.31;100.00
15229;BME280;7717;47.792;12.076;2023-03-26T08:37:52;95171.78;;;12.99;100.00
15229;BME280;7717;47.792;12.076;2023-03-26T08:40:42;95153.16;;;12.63;95.80
15229;BME280;7717;47.792;12.076;2023-03-26T08:44:11;95138.66;;;12.90;97.11
15229;BME280;7717;47.792;12.076;2023-03-26T08:46:39;95168.72;;;13.14;100.00
15229;BME280;7717;47.792;12.076;2023-03-26T09:00:11;95121.38;;;12.67;95.55
15229;BME280;7717;47.792;12.076;2023-03-26T09:16:49;95142.84;;;11.70;97.02
15229;BME280;7717;47.792;12.076;2023-03-26T09:31:07;95158.56;;;12.22;96.43
15229;BME280;7717;47.792;12.076;2023-03-26T09:34:47;95134.56;;;12.24;94.55
15229;BME280;7717;47.792;12.076;2023-03-26T09:36:59;95103.25;;;12.71;93.67
15229;BME280;7717;47.792;12.076;2023-03-26T09:42:36;95097.91;;;13.06;92.58
15229;BME280;7717;47.792;12.076;2023-03-26T09:53:46;95115.31;;;12.69;93.87
15229;BME280;7717;47.792;12.076;2023-03-26T09:56:30;95156.78;;;12.85;99.13
15229;BME280;7717;47.792;12.076;2023-03-26T09:59:27;95147.19;;;12.62;97.09
15229;BME280;7717;47.792;12.076;2023-03-26T10:02:08;95166.50;;;12.46;98.79
15229;BME280;7717;47.792;12.076;2023-03-26T10:05:07;95151.56;;;12.29;98.19
15229;BME280;7717;47.792;12.076;2023-03-26T10:19:18;95153.94;;;12.05;98.49
15229;BME280;7717;47.792;12.076;2023-03-26T10:24:50;95178.19;;;11.57;100.00
15229;BME280;7717;47.792;12.076;2023-03-26T10:37:46;95143.19;;;12.22;100.00
15229;BME280;7717;47.792;12.076;2023-03-26T10:51:06;95167.41;;;11.79;100.00
15229;BME280;7717;47.792;12.076;2023-03-26T10:53:50;95166.19;;;11.94;100.00
15229;BME280;7717;47.792;12.076;2023-03-26T10:56:26;95180.25;;;11.77;100.00
15229;BME280;7717;47.792;12.076;2023-03-26T10:58:53;95187.94;;;11.43;100.00
15229;BME280;7717;47.792;12.076;2023-03-26T11:01:45;95167.13;;;11.21;100.00
15229;BME280;7717;47.792;12.076;2023-03-26T11:04:46;95154.44;;;11.50;100.00
15229;BME280;7717;47.792;12.076;2023-03-26T11:10:08;95123.06;;;12.08;100.00
15229;BME280;7717;47.792;12.076;2023-03-26T11:12:48;95096.06;;;12.54;100.00
15229;BME280;7717;47.792;12.076;2023-03-26T11:15:26;95099.41;;;12.86;100.00
15229;BME280;7717;47.792;12.076;2023-03-26T11:33:14;95098.94;;;14.04;100.00
15229;BME280;7717;47.792;12.076;2023-03-26T11:35:46;95096.84;;;13.90;100.00
15229;BME280;7717;47.792;12.076;2023-03-26T11:38:30;95093.41;;;13.91;100.00
15229;BME280;7717;47.792;12.076;2023-03-26T11:41:02;95092.69;;;14.35;100.00
15229;BME280;7717;47.792;12.076;2023-03-26T11:43:32;95081.53;;;14.34;100.00
15229;BME280;7717;47.792;12.076;2023-03-26T11:46:01;95064.91;;;15.09;100.00
15229;BME280;7717;47.792;12.076;2023-03-26T11:51:22;95064.72;;;14.48;98.82
15229;BME280;7717;47.792;12.076;2023-03-26T11:53:50;95074.59;;;14.36;100.00
15229;BME280;7717;47.792;12.076;2023-03-26T11:56:24;95076.41;;;14.80;100.00
15229;BME280;7717;47.792;12.076;2023-03-26T11:59:02;95053.31;;;14.99;99.13
15229;BME280;7717;47.792;12.076;2023-03-26T12:04:24;95044.34;;;14.65;99.86
15229;BME280;7717;47.792;12.076;2023-03-26T12:07:06;95038.66;;;15.22;98.24
15229;BME280;7717;47.792;12.076;2023-03-26T12:09:33;95050.06;;;14.50;100.00
15229;BME280;7717;47.792;12.076;2023-03-26T12:12:01;95060.16;;;14.32;100.00
15229;BME280;7717;47.792;12.076;2023-03-26T12:14:30;95047.44;;;14.06;100.00
15229;BME280;7717;47.792;12.076;2023-03-26T12:17:04;95052.41;;;14.56;100.00
15229;BME280;7717;47.792;12.076;2023-03-26T12:19:41;95048.53;;;13.98;100.00
15229;BME280;7717;47.792;12.076;2023-03-26T12:22:30;95005.13;;;13.89;93.61
15229;BME280;7717;47.792;12.076;2023-03-26T12:25:20;95015.44;;;14.13;95.26
15229;BME280;7717;47.792;12.076;2023-03-26T12:27:56;95030.84;;;14.36;95.31
15229;BME280;7717;47.792;12.076;2023-03-26T12:30:24;95054.41;;;14.93;100.00
15229;BME280;7717;47.792;12.076;2023-03-26T12:32:51;95047.41;;;14.29;100.00
15229;BME280;7717;47.792;12.076;2023-03-26T12:35:25;95054.91;;;13.88;99.62
15229;BME280;7717;47.792;12.076;2023-03-26T12:37:52;95068.22;;;13.76;100.00
15229;BME280;7717;47.792;12.076;2023-03-26T12:42:52;95062.34;;;12.93;100.00
15229;BME280;7717;47.792;12.076;2023-03-26T12:45:27;95059.69;;;12.96;100.00
15229;BME280;7717;47.792;12.076;2023-03-26T12:47:54;95068.00;;;13.57;100.00
15229;BME280;7717;47.792;12.076;2023-03-26T12:50:28;95060.63;;;13.21;100.00
15229;BME280;7717;47.792;12.076;2023-03-26T12:53:17;95060.78;;;12.89;100.00
15229;BME280;7717;47.792;12.076;2023-03-26T12:56:16;95060.13;;;12.54;100.00
15229;BME280;7717;47.792;12.076;2023-03-26T12:59:08;95043.84;;;12.55;100.00
15229;BME280;7717;47.792;12.076;2023-03-26T13:01:58;95031.13;;;12.52;100.00
15229;BME280;7717;47.792;12.076;2023-03-26T13:04:36;95024.13;;;12.84;99.95
15229;BME280;7717;47.792;12.076;2023-03-26T13:07:17;95035.06;;;12.91;99.24
15229;BME280;7717;47.792;12.076;2023-03-26T13:20:13;95073.09;;;10.90;99.85
15229;BME280;7717;47.792;12.076;2023-03-26T13:26:20;95029.44;;;10.60;100.00
15229;BME280;7717;47.792;12.076;2023-03-26T13:30:56;95025.09;;;10.98;99.65
15229;BME280;7717;47.792;12.076;2023-03-26T13:36:01;95025.44;;;10.84;99.11
15229;BME280;7717;47.792;12.076;2023-03-26T13:38:40;95025.19;;;10.20;100.00
15229;BME280;7717;47.792;12.076;2023-03-26T13:46:50;95024.78;;;10.40;100.00
15229;BME280;7717;47.792;12.076;2023-03-26T13:49:31;95013.19;;;10.22;100.00
15229;BME280;7717;47.792;12.076;2023-03-26T13:52:31;95010.03;;;10.50;100.00
15229;BME280;7717;47.792;12.076;2023-03-26T13:55:24;95014.00;;;10.63;100.00
15229;BME280;7717;47.792;12.076;2023-03-26T13:58:15;95034.88;;;10.82;100.00
15229;BME280;7717;47.792;12.076;2023-03-26T14:17:16;95013.25;;;11.60;100.00
15229;BME280;7717;47.792;12.076;2023-03-26T14:22:43;94994.81;;;11.77;100.00
15229;BME280;7717;47.792;12.076;2023-03-26T14:27:48;94982.56;;;12.18;100.00
15229;BME280;7717;47.792;12.076;2023-03-26T14:36:18;94974.69;;;12.24;100.00
15229;BME280;7717;47.792;12.076;2023-03-26T14:41:52;94990.53;;;12.37;100.00
15229;BME280;7717;47.792;12.076;2023-03-26T14:47:21;94985.16;;;12.16;100.00
15229;BME280;7717;47.792;12.076;2023-03-26T14:54:47;94971.66;;;12.11;100.00
15229;BME280;7717;47.792;12.076;2023-03-26T15:00:39;94956.09;;;12.16;100.00
15229;BME280;7717;47.792;12.076;2023-03-26T15:18:09;94926.81;;;12.50;100.00
15229;BME280;7717;47.792;12.076;2023-03-26T15:38:14;94928.84;;;12.13;100.00
15229;BME280;7717;47.792;12.076;2023-03-26T15:43:16;94928.75;;;11.86;100.00
15229;BME280;7717;47.792;12.076;2023-03-26T15:45:51;94921.44;;;11.74;100.00
15229;BME280;7717;47.792;12.076;2023-03-26T15:48:34;94926.03;;;11.63;100.00
15229;BME280;7717;47.792;12.076;2023-03-26T15:51:14;94917.44;;;11.64;100.00
15229;BME280;7717;47.792;12.076;2023-03-26T15:56:20;94924.44;;;11.59;100.00
15229;BME280;7717;47.792;12.076;2023-03-26T16:04:44;94916.69;;;11.30;100.00
15229;BME280;7717;47.792;12.076;2023-03-26T16:10:22;94916.66;;;11.32;100.00
15229;BME280;7717;47.792;12.076;2023-03-26T16:16:16;94912.75;;;11.19;100.00
15229;BME280;7717;47.792;12.076;2023-03-26T16:18:45;94923.94;;;11.16;100.00
15229;BME280;7717;47.792;12.076;2023-03-26T16:23:55;94893.25;;;11.14;100.00
15229;BME280;7717;47.792;12.076;2023-03-26T16:29:25;94913.00;;;11.09;100.00
15229;BME280;7717;47.792;12.076;2023-03-26T16:32:15;94920.97;;;10.98;100.00
15229;BME280;7717;47.792;12.076;2023-03-26T16:48:31;94937.59;;;9.72;100.00
15229;BME280;7717;47.792;12.076;2023-03-26T16:51:42;94951.28;;;9.68;100.00
15229;BME280;7717;47.792;12.076;2023-03-26T17:02:16;94958.94;;;9.28;100.00
15229;BME280;7717;47.792;12.076;2023-03-26T17:04:47;94955.53;;;9.27;100.00
15229;BME280;7717;47.792;12.076;2023-03-26T17:07:20;94954.81;;;9.21;100.00
15229;BME280;7717;47.792;12.076;2023-03-26T17:13:04;94948.28;;;9.06;100.00
15229;BME280;7717;47.792;12.076;2023-03-26T17:18:34;94925.38;;;9.03;100.00
15229;BME280;7717;47.792;12.076;2023-03-26T17:21:24;94910.22;;;8.93;100.00
15229;BME280;7717;47.792;12.076;2023-03-26T17:24:10;94917.97;;;8.89;100.00
15229;BME280;7717;47.792;12.076;2023-03-26T17:26:45;94916.53;;;8.75;100.00
15229;BME280;7717;47.792;12.076;2023-03-26T17:37:02;94924.97;;;8.79;100.00
15229;BME280;7717;47.792;12.076;2023-03-26T17:44:43;94914.38;;;8.52;100.00
15229;BME280;7717;47.792;12.076;2023-03-26T17:47:30;94928.94;;;8.45;100.00
15229;BME280;7717;47.792;12.076;2023-03-26T17:50:02;94928.94;;;8.47;100.00
15229;BME280;7717;47.792;12.076;2023-03-26T17:52:53;94939.19;;;8.44;100.00
15229;BME280;7717;47.792;12.076;2023-03-26T17:55:26;94925.31;;;8.59;100.00
15229;BME280;7717;47.792;12.076;2023-03-26T17:58:03;94948.75;;;8.79;100.00
15229;BME280;7717;47.792;12.076;2023-03-26T18:00:41;94978.88;;;8.59;100.00
15229;BME280;7717;47.792;12.076;2023-03-26T18:03:12;95026.69;;;8.43;100.00
15229;BME280;7717;47.792;12.076;2023-03-26T18:05:38;95007.72;;;8.61;100.00
15229;BME280;7717;47.792;12.076;2023-03-26T18:16:20;95027.31;;;7.97;100.00
15229;BME280;7717;47.792;12.076;2023-03-26T18:18:59;95053.06;;;7.77;100.00
15229;BME280;7717;47.792;12.076;2023-03-26T18:21:36;95062.81;;;7.39;100.00
15229;BME280;7717;47.792;12.076;2023-03-26T18:24:04;95039.59;;;6.86;100.00
15229;BME280;7717;47.792;12.076;2023-03-26T18:26:42;95060.91;;;6.68;100.00
15229;BME280;7717;47.792;12.076;2023-03-26T18:29:24;95083.09;;;6.46;100.00
15229;BME280;7717;47.792;12.076;2023-03-26T18:31:57;95094.16;;;6.39;100.00
15229;BME280;7717;47.792;12.076;2023-03-26T18:34:27;95078.13;;;6.26;100.00
15229;BME280;7717;47.792;12.076;2023-03-26T18:37:33;95090.97;;;6.03;100.00
15229;BME280;7717;47.792;12.076;2023-03-26T18:42:24;95082.53;;;5.85;100.00
15229;BME280;7717;47.792;12.076;2023-03-26T18:44:51;95077.47;;;5.79;100.00
15229;BME280;7717;47.792;12.076;2023-03-26T18:47:18;95071.53;;;5.97;100.00
15229;BME280;7717;47.792;12.076;2023-03-26T18:49:45;95060.50;;;5.87;100.00
15229;BME280;7717;47.792;12.076;2023-03-26T18:52:17;95055.44;;;5.86;100.00
15229;BME280;7717;47.792;12.076;2023-03-26T18:54:47;95046.22;;;5.69;100.00